Time;durP1;ratioP1;P1;durP2;ratioP2;P2;SDS_P1;SDS_P2;PMS_P1;PMS_P2;Temp;Humidity;BMP_temperature;BMP_pressure;BME280_temperature;BME280_humidity;BME280_pressure;Samples;Min_cycle;Max_cycle;Signal;HPM_P1;HPM_P2
2023/05/22 00:00:31;;;;;;;38.47;13.23;;;13.70;99.90;;;;;;5052661;28;20361;-72
2023/05/22 00:02:57;;;;;;;43.88;14.60;;;13.80;99.90;;;;;;5052460;28;20020;-72
2023/05/22 00:05:23;;;;;;;35.00;13.18;;;13.70;99.90;;;;;;5046614;28;20116;-72
2023/05/22 00:07:49;;;;;;;37.22;14.25;;;13.70;99.90;;;;;;5052417;28;20560;-72
2023/05/22 00:10:14;;;;;;;40.95;14.73;;;13.70;99.90;;;;;;5052818;28;20013;-72
2023/05/22 00:12:40;;;;;;;36.20;13.50;;;13.70;99.90;;;;;;5066351;28;20013;-72
2023/05/22 00:15:06;;;;;;;38.08;13.60;;;13.70;99.90;;;;;;5052706;28;20429;-72
2023/05/22 00:17:32;;;;;;;37.25;14.10;;;13.70;99.90;;;;;;5042901;28;20067;-72
2023/05/22 00:20:16;;;;;;;44.20;13.50;;;13.80;99.90;;;;;;5059737;28;20030;-72
2023/05/22 00:22:43;;;;;;;36.83;14.20;;;13.70;99.90;;;;;;5054380;28;20036;-72
2023/05/22 00:25:10;;;;;;;40.90;13.95;;;13.70;99.90;;;;;;5051942;28;20441;-72
2023/05/22 00:27:35;;;;;;;38.00;16.05;;;13.70;99.90;;;;;;5052415;28;20059;-72
2023/05/22 00:30:01;;;;;;;40.47;14.75;;;13.70;99.90;;;;;;5045836;28;20017;-72
2023/05/22 00:32:27;;;;;;;36.50;15.23;;;13.70;99.90;;;;;;5051907;28;20021;-72
2023/05/22 00:34:52;;;;;;;43.42;15.70;;;13.60;99.90;;;;;;5050866;28;20649;-72
2023/05/22 00:37:19;;;;;;;38.80;14.55;;;13.60;99.90;;;;;;5048034;28;20033;-72
2023/05/22 00:39:45;;;;;;;39.25;15.00;;;13.50;99.90;;;;;;5049134;28;20326;-72
2023/05/22 00:42:11;;;;;;;41.45;15.93;;;13.50;99.90;;;;;;5036513;28;20049;-72
2023/05/22 00:44:37;;;;;;;44.67;14.70;;;13.60;99.90;;;;;;5045043;28;20436;-72
2023/05/22 00:47:03;;;;;;;41.35;15.93;;;13.50;99.90;;;;;;5052113;28;20809;-72
2023/05/22 00:49:29;;;;;;;46.42;16.42;;;13.50;99.90;;;;;;5051527;28;20044;-72
2023/05/22 00:51:54;;;;;;;41.00;15.80;;;13.50;99.90;;;;;;5051782;28;20017;-72
2023/05/22 00:54:20;;;;;;;36.28;15.40;;;13.60;99.90;;;;;;5051479;28;20021;-72
2023/05/22 00:56:46;;;;;;;37.92;14.95;;;13.60;99.90;;;;;;5051837;28;20103;-72
2023/05/22 00:59:12;;;;;;;41.65;15.90;;;13.60;99.90;;;;;;5053000;28;20099;-72
2023/05/22 01:01:40;;;;;;;45.67;17.00;;;13.60;99.90;;;;;;5054910;28;20174;-72
2023/05/22 01:04:09;;;;;;;49.42;17.90;;;13.60;99.90;;;;;;5053558;28;20095;-72
2023/05/22 01:06:35;;;;;;;37.33;16.80;;;13.60;99.90;;;;;;5058718;28;20036;-72
2023/05/22 01:09:00;;;;;;;38.00;16.27;;;13.70;99.90;;;;;;5064695;28;20013;-72
2023/05/22 01:11:26;;;;;;;43.55;16.35;;;13.70;99.90;;;;;;5059789;28;20099;-72
2023/05/22 01:13:57;;;;;;;52.35;18.80;;;13.70;99.90;;;;;;5054450;28;20021;-72
2023/05/22 01:16:45;;;;;;;49.78;18.58;;;13.80;99.90;;;;;;5050787;28;20029;-72
2023/05/22 01:19:32;;;;;;;43.72;17.50;;;13.70;99.90;;;;;;5045433;28;20021;-72
2023/05/22 01:22:16;;;;;;;45.70;17.52;;;13.70;99.90;;;;;;5044246;28;20021;-72
2023/05/22 01:25:15;;;;;;;46.75;18.48;;;13.70;99.90;;;;;;5041971;28;20028;-72
2023/05/22 01:28:07;;;;;;;55.00;18.35;;;13.70;99.90;;;;;;5038828;28;20025;-72
2023/05/22 01:31:06;;;;;;;44.22;18.45;;;13.70;99.90;;;;;;5063541;28;20767;-72
2023/05/22 01:33:45;;;;;;;42.90;17.63;;;13.60;99.90;;;;;;5041830;28;20052;-72
2023/05/22 01:36:14;;;;;;;45.60;17.88;;;13.60;99.90;;;;;;5035574;28;20053;-72
2023/05/22 01:38:41;;;;;;;48.65;19.13;;;13.60;99.90;;;;;;5046081;28;20021;-72
2023/05/22 01:41:07;;;;;;;52.90;19.00;;;13.50;99.90;;;;;;5055280;28;20016;-71
2023/05/22 01:43:34;;;;;;;50.03;19.10;;;13.60;99.90;;;;;;5045556;28;20110;-72
2023/05/22 01:46:00;;;;;;;52.10;18.75;;;13.60;99.90;;;;;;5047608;28;20052;-72
2023/05/22 01:48:26;;;;;;;48.90;18.42;;;13.50;99.90;;;;;;5043966;28;20021;-71
2023/05/22 01:50:53;;;;;;;51.75;19.08;;;13.50;99.90;;;;;;5044721;28;20479;-71
2023/05/22 01:53:30;;;;;;;43.60;18.35;;;13.60;99.90;;;;;;5050648;28;20032;-72
2023/05/22 01:56:06;;;;;;;47.15;18.55;;;13.50;99.90;;;;;;5049697;28;20548;-72
2023/05/22 01:58:38;;;;;;;46.00;17.95;;;13.50;99.90;;;;;;5046913;28;20303;-72
2023/05/22 02:01:05;;;;;;;46.53;19.15;;;13.60;99.90;;;;;;5049963;28;20641;-69
2023/05/22 02:03:34;;;;;;;53.55;19.95;;;13.50;99.90;;;;;;5062166;28;20025;-69
2023/05/22 02:06:04;;;;;;;49.15;19.50;;;13.50;99.90;;;;;;5050479;28;20116;-70
2023/05/22 02:08:30;;;;;;;40.00;19.15;;;13.50;99.90;;;;;;5049245;28;20023;-69
2023/05/22 02:10:58;;;;;;;53.17;19.67;;;13.50;99.90;;;;;;5057135;28;20027;-70
2023/05/22 02:13:23;;;;;;;46.80;20.95;;;13.50;99.90;;;;;;5047540;28;20044;-70
2023/05/22 02:15:50;;;;;;;44.55;20.23;;;13.50;99.90;;;;;;5037199;28;20022;-69
2023/05/22 02:18:16;;;;;;;55.83;21.15;;;13.50;99.90;;;;;;5045004;28;20029;-69
2023/05/22 02:20:42;;;;;;;54.50;21.75;;;13.50;99.90;;;;;;5049035;28;20021;-72
2023/05/22 02:23:08;;;;;;;59.63;21.17;;;13.50;99.90;;;;;;5058477;28;20475;-73
2023/05/22 02:25:33;;;;;;;50.17;21.67;;;13.50;99.90;;;;;;5054823;28;20111;-72
2023/05/22 02:27:59;;;;;;;55.92;21.85;;;13.50;99.90;;;;;;5050089;28;20044;-72
2023/05/22 02:30:25;;;;;;;55.60;21.63;;;13.50;99.90;;;;;;5053190;28;20025;-72
2023/05/22 02:32:50;;;;;;;50.03;21.10;;;13.50;99.90;;;;;;5054330;28;20051;-72
2023/05/22 02:35:16;;;;;;;46.65;20.23;;;13.50;99.90;;;;;;5047932;28;20112;-72
2023/05/22 02:37:42;;;;;;;53.95;20.45;;;13.50;99.90;;;;;;5055670;28;20033;-71
2023/05/22 02:40:08;;;;;;;55.85;21.98;;;13.50;99.90;;;;;;5050414;28;20078;-71
2023/05/22 02:42:34;;;;;;;51.90;20.75;;;13.50;99.90;;;;;;5048682;28;20056;-71
2023/05/22 02:45:01;;;;;;;47.72;21.23;;;13.50;99.90;;;;;;5058541;28;20091;-72
2023/05/22 02:47:27;;;;;;;51.10;21.08;;;13.50;99.90;;;;;;5058229;28;20029;-71
2023/05/22 02:49:52;;;;;;;51.25;20.27;;;13.50;99.90;;;;;;5063882;28;20024;-72
2023/05/22 02:52:18;;;;;;;53.38;21.80;;;13.50;99.90;;;;;;5053792;28;20120;-72
2023/05/22 02:54:43;;;;;;;45.58;20.75;;;13.50;99.90;;;;;;5062030;28;20074;-72
2023/05/22 02:57:09;;;;;;;51.85;21.02;;;13.50;99.90;;;;;;5053657;28;20054;-73
2023/05/22 02:59:35;;;;;;;45.20;20.40;;;13.50;99.90;;;;;;5055698;28;20021;-71
2023/05/22 03:02:02;;;;;;;47.03;20.10;;;13.50;99.90;;;;;;5049237;28;20341;-71
2023/05/22 03:04:28;;;;;;;53.22;21.05;;;13.50;99.90;;;;;;5040802;28;20092;-71
2023/05/22 03:06:54;;;;;;;50.08;20.67;;;13.50;99.90;;;;;;5041520;28;20027;-71
2023/05/22 03:09:19;;;;;;;53.38;20.52;;;13.50;99.90;;;;;;5047680;28;20025;-71
2023/05/22 03:11:45;;;;;;;51.78;20.70;;;13.50;99.90;;;;;;5054857;28;20503;-71
2023/05/22 03:14:11;;;;;;;48.95;20.95;;;13.50;99.90;;;;;;5059864;28;20025;-71
2023/05/22 03:16:36;;;;;;;54.13;21.27;;;13.50;99.90;;;;;;5048306;28;20036;-71
2023/05/22 03:19:09;;;;;;;52.45;22.85;;;13.40;99.90;;;;;;5057630;28;20020;-71
2023/05/22 03:21:35;;;;;;;59.08;22.63;;;13.40;99.90;;;;;;5063173;28;20021;-71
2023/05/22 03:24:01;;;;;;;54.10;24.10;;;13.40;99.90;;;;;;5052465;28;20028;-71
2023/05/22 03:26:27;;;;;;;58.58;23.85;;;13.40;99.90;;;;;;5053005;28;20028;-72
2023/05/22 03:28:53;;;;;;;57.40;24.27;;;13.40;99.90;;;;;;5052769;28;20037;-72
2023/05/22 03:31:19;;;;;;;56.20;23.63;;;13.40;99.90;;;;;;5057684;28;20031;-72
2023/05/22 03:33:44;;;;;;;64.22;24.63;;;13.40;99.90;;;;;;5052830;28;20014;-72
2023/05/22 03:36:10;;;;;;;60.22;23.48;;;13.40;99.90;;;;;;5040958;28;20113;-73
2023/05/22 03:38:36;;;;;;;61.72;23.60;;;13.40;99.90;;;;;;5042074;28;20103;-72
2023/05/22 03:41:01;;;;;;;55.58;23.35;;;13.50;99.90;;;;;;5051417;28;20028;-71
2023/05/22 03:43:27;;;;;;;57.00;23.52;;;13.50;99.90;;;;;;5045452;28;20017;-72
2023/05/22 03:45:52;;;;;;;50.03;21.70;;;13.50;99.90;;;;;;5046739;28;20045;-72
2023/05/22 03:48:18;;;;;;;55.05;22.80;;;13.50;99.90;;;;;;5057511;28;20028;-72
2023/05/22 03:50:44;;;;;;;52.42;21.60;;;13.50;99.90;;;;;;5050538;28;20039;-71
2023/05/22 03:53:10;;;;;;;53.50;22.10;;;13.60;99.90;;;;;;5041851;28;20096;-72
2023/05/22 03:55:35;;;;;;;52.17;21.20;;;13.50;99.90;;;;;;5059654;28;20056;-71
2023/05/22 03:58:01;;;;;;;54.72;21.30;;;13.60;99.90;;;;;;5045515;28;20026;-72
2023/05/22 04:00:26;;;;;;;55.95;21.58;;;13.60;99.90;;;;;;5051246;28;20056;-72
2023/05/22 04:02:53;;;;;;;61.47;21.73;;;13.60;99.90;;;;;;5045109;28;20026;-71
2023/05/22 04:05:19;;;;;;;51.80;21.67;;;13.60;99.90;;;;;;5048201;28;20030;-71
2023/05/22 04:07:44;;;;;;;52.72;21.05;;;13.60;99.90;;;;;;5037250;28;20029;-71
2023/05/22 04:10:10;;;;;;;55.38;20.98;;;13.60;99.90;;;;;;5060801;28;20021;-71
2023/05/22 04:12:36;;;;;;;52.10;20.98;;;13.60;99.90;;;;;;5066135;28;20017;-71
2023/05/22 04:15:02;;;;;;;50.70;19.63;;;13.60;99.90;;;;;;5052456;28;20098;-71
2023/05/22 04:17:34;;;;;;;53.53;19.60;;;13.60;99.90;;;;;;5038463;28;20017;-71
2023/05/22 04:20:00;;;;;;;51.70;19.35;;;13.70;99.90;;;;;;5046123;28;20032;-71
2023/05/22 04:22:26;;;;;;;58.17;20.63;;;13.70;99.90;;;;;;5063386;28;20021;-71
2023/05/22 04:24:52;;;;;;;51.88;20.50;;;13.70;99.90;;;;;;5046986;28;20031;-71
2023/05/22 04:27:21;;;;;;;49.15;19.73;;;13.70;99.90;;;;;;5058420;28;20091;-71
2023/05/22 04:29:47;;;;;;;57.10;20.67;;;13.70;99.90;;;;;;5052338;28;20118;-71
2023/05/22 04:32:17;;;;;;;45.25;19.05;;;13.70;99.90;;;;;;5039732;28;20029;-71
2023/05/22 04:34:44;;;;;;;44.40;19.73;;;13.70;99.90;;;;;;5050585;28;20022;-71
2023/05/22 04:39:46;;;;;;;57.67;21.00;;;13.70;99.90;;;;;;4999307;22;20089;-73
2023/05/22 04:42:13;;;;;;;52.40;19.50;;;13.70;99.90;;;;;;5008375;28;20017;-72
2023/05/22 04:44:39;;;;;;;54.60;20.58;;;13.70;99.90;;;;;;5005350;28;20057;-72
2023/05/22 04:47:06;;;;;;;52.75;20.00;;;13.70;99.90;;;;;;5012677;28;20683;-73
2023/05/22 04:49:32;;;;;;;49.03;20.60;;;13.70;99.90;;;;;;5005253;28;20060;-73
2023/05/22 04:51:58;;;;;;;50.65;19.08;;;13.70;99.90;;;;;;5012198;28;20046;-73
2023/05/22 04:54:25;;;;;;;53.95;19.70;;;13.70;99.90;;;;;;5012916;28;20679;-72
2023/05/22 04:56:51;;;;;;;53.60;19.63;;;13.70;99.90;;;;;;4999608;28;20026;-72
2023/05/22 04:59:18;;;;;;;49.55;19.13;;;13.70;99.90;;;;;;5009730;28;20018;-73
2023/05/22 05:01:46;;;;;;;50.60;19.85;;;13.70;99.90;;;;;;5004304;28;20068;-73
2023/05/22 05:04:12;;;;;;;51.88;18.75;;;13.80;99.90;;;;;;5010792;28;20018;-73
2023/05/22 05:06:38;;;;;;;56.22;20.20;;;13.80;99.90;;;;;;5012235;28;20057;-72
2023/05/22 05:09:03;;;;;;;51.30;20.25;;;13.80;99.90;;;;;;5006704;28;20019;-73
2023/05/22 05:11:29;;;;;;;47.22;20.23;;;13.80;99.90;;;;;;5006132;28;20045;-72
2023/05/22 05:13:55;;;;;;;56.08;18.75;;;13.80;99.90;;;;;;5010382;28;20060;-73
2023/05/22 05:16:22;;;;;;;55.03;19.73;;;13.90;99.90;;;;;;5011388;28;20072;-73
2023/05/22 05:18:47;;;;;;;51.65;20.05;;;13.90;99.90;;;;;;5011066;28;20079;-74
2023/05/22 05:21:13;;;;;;;49.83;19.90;;;13.90;99.90;;;;;;5010153;28;20025;-73
2023/05/22 05:23:39;;;;;;;48.58;20.90;;;13.90;99.90;;;;;;5003880;28;20535;-73
2023/05/22 05:26:04;;;;;;;53.10;21.05;;;13.90;99.90;;;;;;5011645;28;20041;-73
2023/05/22 05:28:30;;;;;;;66.00;22.98;;;14.00;99.90;;;;;;5005828;28;20030;-72
2023/05/22 05:30:56;;;;;;;56.38;22.63;;;14.00;99.90;;;;;;5011697;28;20057;-73
2023/05/22 05:33:22;;;;;;;64.75;23.50;;;14.00;99.90;;;;;;5005149;28;20018;-73
2023/05/22 05:35:49;;;;;;;56.92;23.63;;;14.10;99.90;;;;;;5005176;28;20030;-74
2023/05/22 05:38:15;;;;;;;64.25;24.08;;;14.10;99.90;;;;;;5006552;28;20033;-74
2023/05/22 05:40:42;;;;;;;59.00;24.15;;;14.10;99.90;;;;;;5003306;28;20029;-74
2023/05/22 05:43:09;;;;;;;63.15;24.88;;;14.10;99.90;;;;;;5009812;28;20152;-74
2023/05/22 05:45:35;;;;;;;53.95;23.48;;;14.10;99.90;;;;;;5009343;28;20042;-73
2023/05/22 05:48:00;;;;;;;65.97;27.08;;;14.20;99.90;;;;;;4998243;28;20026;-73
2023/05/22 05:50:26;;;;;;;68.15;24.80;;;14.20;99.90;;;;;;5010540;28;20029;-73
2023/05/22 05:52:51;;;;;;;64.35;25.65;;;14.30;99.90;;;;;;5011618;28;20029;-73
2023/05/22 05:55:17;;;;;;;58.03;24.20;;;14.30;99.90;;;;;;5010688;28;20078;-73
2023/05/22 05:57:43;;;;;;;62.15;25.48;;;14.30;99.90;;;;;;5011859;28;20029;-74
2023/05/22 06:00:10;;;;;;;55.65;24.33;;;14.40;99.90;;;;;;5011769;28;20104;-74
2023/05/22 06:02:36;;;;;;;66.43;25.42;;;14.50;99.90;;;;;;5014045;28;20617;-74
2023/05/22 06:05:04;;;;;;;64.65;24.15;;;14.50;99.90;;;;;;5016370;28;20015;-73
2023/05/22 06:07:30;;;;;;;60.05;23.23;;;14.60;99.90;;;;;;5016124;28;20022;-72
2023/05/22 06:09:57;;;;;;;65.35;23.25;;;14.70;99.90;;;;;;5014743;28;20113;-72
2023/05/22 06:12:24;;;;;;;54.85;22.67;;;14.70;99.90;;;;;;5013944;28;20018;-73
2023/05/22 06:14:49;;;;;;;55.28;22.95;;;14.70;99.90;;;;;;5010646;28;20033;-73
2023/05/22 06:17:15;;;;;;;53.15;22.27;;;14.80;99.90;;;;;;5008799;28;20030;-74
2023/05/22 06:19:41;;;;;;;53.05;22.73;;;14.90;99.90;;;;;;5013228;28;20034;-73
2023/05/22 06:22:07;;;;;;;55.17;22.08;;;14.90;99.90;;;;;;5009369;28;20454;-73
2023/05/22 06:24:33;;;;;;;55.00;23.73;;;14.90;99.90;;;;;;5013735;28;20435;-72
2023/05/22 06:26:58;;;;;;;48.95;23.70;;;15.00;99.90;;;;;;5013811;28;20117;-73
2023/05/22 06:29:24;;;;;;;56.00;24.80;;;15.00;99.90;;;;;;5015657;28;20069;-74
2023/05/22 06:31:51;;;;;;;58.22;25.83;;;15.00;99.90;;;;;;5010975;28;20030;-72
2023/05/22 06:34:24;;;;;;;55.92;25.33;;;15.00;99.90;;;;;;5015701;28;20092;-73
2023/05/22 06:36:50;;;;;;;52.22;24.70;;;15.00;99.90;;;;;;5012429;28;20364;-73
2023/05/22 06:39:17;;;;;;;55.72;24.45;;;15.00;99.90;;;;;;5014505;28;20050;-73
2023/05/22 06:41:43;;;;;;;52.60;24.27;;;15.00;99.90;;;;;;5014023;28;20014;-73
2023/05/22 06:44:09;;;;;;;58.28;25.30;;;15.00;99.90;;;;;;5013886;28;20587;-73
2023/05/22 06:46:34;;;;;;;61.25;26.05;;;15.10;99.90;;;;;;4999889;28;20030;-73
2023/05/22 06:49:00;;;;;;;55.83;24.88;;;15.20;99.90;;;;;;5012257;28;20095;-73
2023/05/22 06:51:26;;;;;;;52.80;24.30;;;15.20;99.90;;;;;;5014162;28;20018;-73
2023/05/22 06:53:51;;;;;;;56.63;25.48;;;15.20;99.90;;;;;;5014175;28;20064;-73
2023/05/22 06:56:17;;;;;;;58.42;23.52;;;15.30;99.90;;;;;;5013215;28;20064;-73
2023/05/22 06:58:43;;;;;;;62.05;23.85;;;15.40;99.90;;;;;;5014289;28;20065;-73
2023/05/22 07:01:09;;;;;;;62.35;23.20;;;15.60;99.90;;;;;;5014364;28;20030;-73
2023/05/22 07:03:34;;;;;;;56.40;23.05;;;15.60;99.90;;;;;;5012631;28;20022;-72
2023/05/22 07:06:01;;;;;;;56.80;23.70;;;15.80;99.90;;;;;;5009230;28;20029;-72
2023/05/22 07:08:27;;;;;;;51.15;22.80;;;15.90;99.90;;;;;;5014049;28;20049;-73
2023/05/22 07:10:52;;;;;;;46.03;22.52;;;16.00;99.90;;;;;;5006606;28;20495;-73
2023/05/22 07:13:18;;;;;;;51.65;21.70;;;16.10;99.90;;;;;;5007965;28;20057;-73
2023/05/22 07:15:45;;;;;;;47.08;21.13;;;16.30;99.90;;;;;;5011930;28;20045;-73
2023/05/22 07:18:11;;;;;;;41.42;20.65;;;16.40;99.90;;;;;;5013288;28;20064;-74
2023/05/22 07:20:37;;;;;;;39.65;20.95;;;16.50;99.90;;;;;;5002935;28;20101;-73
2023/05/22 07:23:02;;;;;;;43.17;21.40;;;16.60;99.90;;;;;;5005811;28;20098;-72
2023/05/22 07:25:28;;;;;;;49.67;23.25;;;16.60;99.90;;;;;;5018686;28;20034;-73
2023/05/22 07:27:54;;;;;;;48.08;22.15;;;16.60;99.90;;;;;;5006410;28;20022;-73
2023/05/22 07:30:20;;;;;;;43.40;21.42;;;16.70;99.90;;;;;;5014988;28;20453;-73
2023/05/22 07:32:47;;;;;;;52.65;21.50;;;16.80;99.90;;;;;;5012738;28;20026;-72
2023/05/22 07:35:12;;;;;;;46.55;21.52;;;16.90;99.90;;;;;;5013050;28;20040;-72
2023/05/22 07:37:38;;;;;;;45.97;21.42;;;17.00;99.90;;;;;;5011505;28;20034;-73
2023/05/22 07:40:08;;;;;;;46.92;22.52;;;17.20;99.90;;;;;;5010977;28;20045;-73
2023/05/22 07:42:34;;;;;;;40.85;20.80;;;17.20;99.90;;;;;;5009723;28;20033;-72
2023/05/22 07:45:00;;;;;;;46.28;20.83;;;17.30;99.90;;;;;;5008596;28;20472;-73
2023/05/22 07:47:26;;;;;;;44.00;20.95;;;17.50;99.90;;;;;;5013608;28;20038;-73
2023/05/22 07:49:52;;;;;;;43.03;20.38;;;17.60;99.90;;;;;;5013103;28;20113;-73
2023/05/22 07:52:18;;;;;;;40.42;20.58;;;17.70;99.90;;;;;;5012372;28;20020;-73
2023/05/22 07:54:43;;;;;;;45.40;20.55;;;17.80;99.90;;;;;;5010817;28;20105;-73
2023/05/22 07:57:11;;;;;;;38.78;19.90;;;17.90;99.90;;;;;;5013352;28;20102;-73
2023/05/22 07:59:36;;;;;;;43.80;20.00;;;18.10;99.90;;;;;;5013626;28;20026;-73
2023/05/22 08:02:02;;;;;;;39.50;20.42;;;18.30;99.90;;;;;;5013197;28;20080;-73
2023/05/22 08:04:28;;;;;;;37.75;19.13;;;18.40;99.90;;;;;;5010610;28;20021;-73
2023/05/22 08:06:54;;;;;;;43.80;20.70;;;18.60;99.90;;;;;;5009948;28;20032;-73
2023/05/22 08:09:20;;;;;;;42.63;19.20;;;18.80;99.90;;;;;;5013386;28;20014;-74
2023/05/22 08:11:46;;;;;;;39.05;19.95;;;18.90;99.90;;;;;;5007302;28;20022;-74
2023/05/22 08:14:11;;;;;;;39.65;19.33;;;19.10;99.90;;;;;;5006026;28;20471;-74
2023/05/22 08:16:37;;;;;;;47.50;21.40;;;19.20;99.90;;;;;;5008030;28;20046;-73
2023/05/22 08:19:02;;;;;;;36.67;18.90;;;19.30;99.90;;;;;;5000506;28;20650;-73
2023/05/22 08:21:28;;;;;;;39.03;18.27;;;19.50;99.90;;;;;;4997853;28;20030;-73
2023/05/22 08:23:54;;;;;;;43.13;17.98;;;19.60;99.90;;;;;;5008253;28;20022;-72
2023/05/22 08:26:19;;;;;;;42.13;17.85;;;19.70;99.90;;;;;;5011271;28;20117;-72
2023/05/22 08:28:45;;;;;;;42.05;17.67;;;19.80;99.90;;;;;;5002623;28;20027;-72
2023/05/22 08:31:11;;;;;;;43.30;18.95;;;19.90;99.90;;;;;;5007333;28;20034;-73
2023/05/22 08:33:37;;;;;;;40.55;18.13;;;19.90;99.90;;;;;;5003920;28;20519;-73
2023/05/22 08:36:03;;;;;;;37.92;18.52;;;20.10;99.90;;;;;;5010414;28;20029;-73
2023/05/22 08:38:28;;;;;;;33.60;17.98;;;20.30;99.90;;;;;;5010399;28;20062;-73
2023/05/22 08:40:54;;;;;;;34.95;17.00;;;20.40;99.90;;;;;;5006292;28;20465;-73
2023/05/22 08:43:20;;;;;;;38.63;17.75;;;20.50;99.90;;;;;;5012376;28;20020;-74
2023/05/22 08:46:02;;;;;;;33.75;16.80;;;20.60;99.90;;;;;;5008551;28;20038;-73
2023/05/22 08:48:32;;;;;;;31.38;15.73;;;20.70;99.90;;;;;;5011697;28;20106;-74
2023/05/22 08:51:02;;;;;;;32.83;16.45;;;20.90;99.90;;;;;;5012554;28;20101;-73
2023/05/22 08:53:36;;;;;;;33.92;16.02;;;21.10;99.90;;;;;;5012567;28;20026;-73
2023/05/22 08:56:04;;;;;;;31.35;15.43;;;21.30;99.90;;;;;;5009480;28;20022;-74
2023/05/22 08:58:32;;;;;;;31.23;15.77;;;21.50;99.90;;;;;;5007657;28;20085;-74
2023/05/22 09:00:58;;;;;;;32.40;15.30;;;21.70;99.90;;;;;;5012751;28;20022;-73
2023/05/22 09:03:27;;;;;;;31.33;15.25;;;21.90;99.90;;;;;;5012640;28;20018;-73
2023/05/22 09:05:53;;;;;;;31.85;15.43;;;22.00;99.90;;;;;;5006315;28;20538;-73
2023/05/22 09:08:26;;;;;;;29.27;14.75;;;22.20;99.90;;;;;;4997794;28;20110;-73
2023/05/22 09:10:53;;;;;;;29.30;14.43;;;22.30;99.90;;;;;;5000106;28;20484;-73
2023/05/22 09:13:27;;;;;;;28.20;14.40;;;22.40;99.90;;;;;;5004196;28;20018;-73
2023/05/22 09:16:14;;;;;;;31.25;14.25;;;22.40;99.90;;;;;;5012676;28;20033;-73
2023/05/22 09:18:41;;;;;;;34.22;14.73;;;22.50;99.90;;;;;;5012312;28;20018;-73
2023/05/22 09:21:07;;;;;;;28.60;13.85;;;22.50;99.90;;;;;;4999459;28;20052;-72
2023/05/22 09:23:33;;;;;;;27.85;14.75;;;22.40;99.90;;;;;;5011511;28;20432;-73
2023/05/22 09:26:00;;;;;;;26.67;14.80;;;22.50;99.90;;;;;;5010649;28;20105;-73
2023/05/22 09:28:27;;;;;;;33.58;14.25;;;22.60;99.90;;;;;;5012131;28;20022;-74
2023/05/22 09:30:54;;;;;;;27.83;14.48;;;22.70;99.90;;;;;;4999462;28;20022;-73
2023/05/22 09:33:22;;;;;;;23.92;13.25;;;22.70;99.90;;;;;;5012268;28;20077;-75
2023/05/22 09:35:50;;;;;;;28.98;14.50;;;22.80;99.90;;;;;;5011024;28;20037;-73
2023/05/22 09:38:16;;;;;;;27.58;15.30;;;22.90;99.90;;;;;;5009567;28;20018;-73
2023/05/22 09:40:41;;;;;;;31.08;15.65;;;23.10;99.90;;;;;;5011996;28;20364;-74
2023/05/22 09:43:11;;;;;;;28.95;15.13;;;23.20;99.90;;;;;;5012259;28;20494;-74
2023/05/22 09:45:37;;;;;;;28.33;15.07;;;23.30;99.90;;;;;;5011832;28;20459;-73
2023/05/22 09:48:05;;;;;;;30.15;14.85;;;23.30;99.90;;;;;;5011624;28;20532;-73
2023/05/22 09:50:35;;;;;;;30.85;14.82;;;23.40;99.90;;;;;;5010440;28;20026;-73
2023/05/22 09:53:03;;;;;;;28.52;14.35;;;23.60;99.90;;;;;;5009382;28;20026;-73
2023/05/22 09:55:30;;;;;;;29.58;14.25;;;23.70;99.90;;;;;;5010098;28;20109;-73
2023/05/22 09:57:57;;;;;;;28.13;14.63;;;23.80;99.90;;;;;;5004636;28;20026;-73
2023/05/22 10:00:24;;;;;;;28.35;14.30;;;23.80;99.90;;;;;;4997273;28;20072;-73
2023/05/22 10:02:57;;;;;;;27.48;14.02;;;23.90;99.90;;;;;;5004350;28;20023;-73
2023/05/22 10:05:28;;;;;;;29.98;15.50;;;24.00;99.90;;;;;;5006709;28;20030;-73
2023/05/22 10:07:56;;;;;;;29.95;14.32;;;24.20;99.90;;;;;;5012500;28;20026;-72
2023/05/22 10:10:25;;;;;;;26.27;13.18;;;24.30;99.90;;;;;;5012247;28;20022;-73
2023/05/22 10:13:02;;;;;;;28.15;12.63;;;24.40;99.90;;;;;;5012606;28;20022;-73
2023/05/22 10:15:28;;;;;;;25.77;12.02;;;24.40;99.90;;;;;;5007656;28;20038;-73
2023/05/22 10:17:55;;;;;;;25.90;12.25;;;24.30;99.90;;;;;;5012259;28;20022;-73
2023/05/22 10:20:21;;;;;;;27.23;12.23;;;24.30;99.90;;;;;;5011889;28;20022;-72
2023/05/22 10:22:50;;;;;;;31.63;11.63;;;24.20;99.90;;;;;;5011924;28;20033;-73
2023/05/22 10:25:17;;;;;;;30.83;12.35;;;24.30;99.90;;;;;;5003651;28;20041;-73
2023/05/22 10:27:43;;;;;;;28.23;12.95;;;24.30;99.90;;;;;;5010091;28;20029;-73
2023/05/22 10:30:17;;;;;;;28.73;12.35;;;24.30;99.90;;;;;;5011446;28;20018;-73
2023/05/22 10:33:06;;;;;;;27.25;13.43;;;24.30;99.90;;;;;;5011742;28;20026;-73
2023/05/22 10:35:40;;;;;;;27.58;13.32;;;24.30;99.90;;;;;;5011519;28;20063;-72
2023/05/22 10:38:26;;;;;;;31.80;14.18;;;24.20;99.90;;;;;;5010881;28;20014;-73
2023/05/22 10:40:52;;;;;;;34.97;13.95;;;24.20;99.90;;;;;;5008048;28;20061;-73
2023/05/22 10:43:21;;;;;;;31.88;13.93;;;24.20;99.90;;;;;;5011371;28;20014;-73
2023/05/22 10:45:46;;;;;;;30.83;14.45;;;24.20;99.90;;;;;;5011587;28;20034;-73
2023/05/22 10:48:12;;;;;;;28.08;13.00;;;24.10;99.90;;;;;;5010823;28;20334;-73
2023/05/22 10:50:39;;;;;;;29.55;14.18;;;24.20;99.90;;;;;;5014976;28;20022;-74
2023/05/22 10:53:25;;;;;;;30.25;13.15;;;24.30;99.90;;;;;;5014799;28;20037;-74
2023/05/22 10:55:55;;;;;;;30.38;13.88;;;24.20;99.90;;;;;;5012801;28;20479;-74
2023/05/22 10:58:26;;;;;;;29.00;13.95;;;24.30;99.90;;;;;;5009382;28;20427;-75
2023/05/22 11:01:10;;;;;;;31.02;14.13;;;24.30;99.90;;;;;;5011526;28;20026;-74
2023/05/22 11:03:56;;;;;;;33.83;15.20;;;24.20;99.90;;;;;;5010970;28;20037;-74
2023/05/22 11:06:46;;;;;;;32.80;13.68;;;24.00;99.90;;;;;;5004267;28;20022;-75
2023/05/22 11:09:47;;;;;;;39.95;15.05;;;24.00;99.90;;;;;;5014492;28;20045;-75
2023/05/22 11:12:27;;;;;;;29.02;14.43;;;23.90;99.90;;;;;;5014762;28;20112;-75
2023/05/22 11:15:07;;;;;;;31.73;14.95;;;24.00;99.90;;;;;;5006724;28;20026;-74
2023/05/22 11:17:38;;;;;;;30.35;13.80;;;24.00;99.90;;;;;;5013161;28;20018;-74
2023/05/22 11:20:11;;;;;;;34.15;15.27;;;24.00;99.90;;;;;;5014520;28;20093;-75
2023/05/22 11:22:41;;;;;;;32.33;13.68;;;24.00;99.90;;;;;;5014317;28;20236;-75
2023/05/22 11:25:15;;;;;;;27.73;14.32;;;24.00;99.90;;;;;;5001635;28;20061;-75
2023/05/22 11:27:41;;;;;;;30.73;13.85;;;24.10;99.90;;;;;;5014592;28;20034;-75
2023/05/22 11:30:11;;;;;;;32.15;13.65;;;24.20;99.90;;;;;;5014459;28;20034;-75
2023/05/22 11:32:43;;;;;;;30.65;13.63;;;24.20;99.90;;;;;;5014727;28;20030;-75
2023/05/22 11:35:13;;;;;;;33.97;14.15;;;24.20;99.90;;;;;;5013383;28;20057;-76
2023/05/22 11:37:39;;;;;;;26.98;13.63;;;24.30;99.90;;;;;;5015115;28;20022;-75
2023/05/22 11:40:06;;;;;;;28.83;12.50;;;24.40;99.90;;;;;;5023980;28;20049;-75
2023/05/22 11:42:32;;;;;;;35.97;15.35;;;24.50;99.90;;;;;;5015401;28;20026;-75
2023/05/22 11:45:00;;;;;;;31.73;14.93;;;24.60;99.90;;;;;;5019941;28;20036;-75
2023/05/22 11:47:29;;;;;;;30.67;15.60;;;24.70;99.90;;;;;;5015568;28;20473;-76
2023/05/22 11:50:00;;;;;;;28.67;15.68;;;24.70;99.90;;;;;;5012163;28;20030;-75
2023/05/22 11:52:32;;;;;;;36.08;16.15;;;24.60;99.90;;;;;;5004966;28;20107;-75
2023/05/22 11:54:58;;;;;;;32.20;15.55;;;24.60;99.90;;;;;;5012630;28;20032;-75
2023/05/22 11:57:24;;;;;;;28.80;16.08;;;24.50;99.90;;;;;;5006565;28;20025;-76
2023/05/22 11:59:49;;;;;;;32.00;16.35;;;24.70;99.90;;;;;;5006874;28;20519;-75
2023/05/22 12:02:15;;;;;;;35.80;18.75;;;24.70;99.90;;;;;;5011196;28;20021;-75
2023/05/22 12:04:41;;;;;;;30.83;17.48;;;24.90;99.90;;;;;;5007591;28;20061;-75
2023/05/22 12:07:07;;;;;;;35.85;18.77;;;24.90;99.90;;;;;;5013445;28;20033;-75
2023/05/22 12:09:33;;;;;;;29.52;17.33;;;25.00;99.90;;;;;;5013824;28;20038;-75
2023/05/22 12:11:59;;;;;;;33.38;17.67;;;25.00;99.90;;;;;;5013670;28;20018;-75
2023/05/22 12:14:30;;;;;;;29.17;16.73;;;24.90;99.90;;;;;;5013364;28;20386;-75
2023/05/22 12:16:57;;;;;;;28.02;15.85;;;24.80;99.90;;;;;;5013610;28;20112;-75
2023/05/22 12:19:25;;;;;;;32.17;18.23;;;24.60;99.90;;;;;;5014005;28;20018;-76
2023/05/22 12:21:51;;;;;;;39.22;17.52;;;24.50;99.90;;;;;;5013633;28;20117;-75
2023/05/22 12:24:23;;;;;;;31.05;18.25;;;24.30;99.90;;;;;;5011708;28;20480;-75
2023/05/22 12:26:50;;;;;;;35.42;16.70;;;24.30;99.90;;;;;;5002556;28;20037;-75
2023/05/22 12:29:16;;;;;;;28.63;15.40;;;24.20;99.90;;;;;;4999032;28;20118;-74
2023/05/22 12:31:45;;;;;;;30.00;16.60;;;24.20;99.90;;;;;;5013824;28;20105;-75
2023/05/22 12:34:11;;;;;;;36.33;16.55;;;24.20;99.90;;;;;;5004618;28;20026;-75